Cincinnati, OH (45201)

2:08 PM EST on February 09, 2016 (GMT -0500)
Mt Adams | | Change Station
CLOSE
Current Station
Personal Weather Station
Location: Cincinnati, OH
Elevation: 797 ft
Nearby Weather Stations

Elev 797 ft 39.11 °N, 84.50 °W | Updated 6 seconds ago

Overcast
Overcast
24.4 °F
Feels Like 17 °F
N
6.8
Wind Variable Wind from SSW
Gusts 10.4 mph

Today
High -- | Low -- °F
--% Chance of Precip.
Yesterday
High -- | Low -- °F
Precip. -- in
Pressure 29.81 in
Visibility 3.0 miles
Clouds Mostly Cloudy 2400 ft
Overcast 3100 ft
Windchill 17 °F
Dew Point 20 °F
Humidity 82%
Rainfall 0.00 in
Snow Depth Not available.
7:37 AM 6:07 PM
New Moon, 2% visible
METAR KLUK 091853Z 26011KT 3SM -SN BKN024 OVC031 M04/M07 A2979 RMK AO2 SNB40 SLP095 P0000 T10441072
Pressure 29.81 in
Visibility 3.0 miles
Clouds Mostly Cloudy 2400 ft
Overcast 3100 ft
Windchill 17 °F
Dew Point 20 °F
Humidity 82%
Rainfall 0.00 in
Snow Depth Not available.
7:37 AM 6:07 PM
New Moon, 2% visible
METAR KLUK 091853Z 26011KT 3SM -SN BKN024 OVC031 M04/M07 A2979 RMK AO2 SNB40 SLP095 P0000 T10441072

10-Day Weather Forecast

Almanac

Astronomy

Feb. 09, 2016 Rise Set
Actual Time
Civil Twilight
Nautical Twilight
Astronomical Twilight
Moon
Length of Visible Light
Length of Day
Tomorrow will be .
, % of the Moon is Illuminated

Today's Extremes

State Highs State Lows

Community

WunderPhotos

Upload Photos

1,891,664 photos uploaded!

WunderBlog® & News

Nearby

Air Quality

  Air Quality AQ Index Pollutant
Not available.

Snow Depth

Station Depth Elevation

Earthquake Activity

City Distance Mag. Time & Date
Minimum magnitude displayed is 2.5.

Coastal Water Temperatures

Place Temperature

Stations

Nearby Weather Stations

Station Location Temp. Windchill Dew Point Humidity Wind Precip. Elev Updated Type
                   

Watches & Warnings

Winter Weather Advisory
Issued: 12:04 PM EST Feb. 9, 2016 – National Weather Service

... Winter Weather Advisory remains in effect until 6 am EST
Wednesday...

* hazard types... snow.

* Accumulations... snow accumulations of 1 to 2 inches are
expected.

* Timing... snow showers are expected this afternoon into Wednesday
morning... bringing additional accumulations to the region.

Precautionary/preparedness actions...

Remember... a Winter Weather Advisory for snow means that periods
of snow will cause primarily travel difficulties. Be prepared for
snow covered roads and limited visibilities... and use caution
while driving. Stay tuned to NOAA Weather Radio or your favorite
source of information for the latest updates. Additional details
can also be found at www.Weather.Gov/iln as well as on our
facebook and twitter pages.